• Join FlightAware (Why Join?)
  • Login
  • US Flag 
08:39PM EDT


 

Airport Tracker/Info


-or-


 

Live Flight TrackerFlight Track Log ✈ SWA419 ✈ 28-Apr-2013 ✈ KBWI - KSAT

Flight Track Log - Related Links

Times and Time Zones

All times are in EDT time to prevent confusion due to time zone crossing. See the SWA419 flight status page for this flight to view local times or setup timezone preferences in your user account.

Time Position Orientation Groundspeed Altitude Reporting Facility
EDT Latitude Longitude Course Direction KTS MPH feet Rate Location/Type
02:24PM 39.1333 -76.6667 288° West 185 213 1,800  Level Potomac TRACON
02:25PM 39.1500 -76.7333 288° West 243 280 4,000 2,520 Climbing Potomac TRACON
02:26PM 39.1833 -76.8000 303° West 264 304 6,700 3,060 Climbing Potomac TRACON
02:27PM 39.2167 -76.9167 290° West 285 328 10,500 2,940 Climbing Potomac TRACON
02:28PM 39.2167 -77.0167 270° West 297 342 12,900 2,100 Climbing Potomac TRACON
02:30PM 39.1358 -77.2292 244° Southwest 329 379 17,200 2,040 Climbing Washington Center
02:31PM 39.0472 -77.2994 212° Southwest 324 373 19,400 2,100 Climbing Washington Center
02:32PM 38.9872 -77.4050 234° Southwest 353 406 21,500 1,920 Climbing Washington Center
02:33PM 38.9664 -77.5378 259° West 359 413 23,300 1,800 Climbing Washington Center
02:34PM 38.9408 -77.6947 258° West 390 449 25,200 1,500 Climbing Washington Center
02:35PM 38.9197 -77.8247 258° West 413 475 26,400 1,020 Climbing Washington Center
02:36PM 38.8917 -77.9867 258° West 419 482 27,300 1,320 Climbing Washington Center
02:37PM 38.8656 -78.1378 258° West 429 494 29,100 1,860 Climbing Washington Center
02:38PM 38.8519 -78.2839 263° West 429 494 31,100 1,920 Climbing Washington Center
02:39PM 38.8508 -78.4306 269° West 424 488 33,000 1,620 Climbing Washington Center
02:40PM 38.8494 -78.5744 269° West 414 476 34,400 1,440 Climbing Washington Center
02:41PM 38.8478 -78.7131 269° West 409 471 36,000 780 Climbing Washington Center
02:42PM 38.8486 -78.8461 271° West 390 449 36,000  Level Washington Center
02:43PM 38.8447 -78.9819 268° West 384 442 36,000  Level Washington Center
02:44PM 38.8431 -79.1178 269° West 384 442 36,000  Level Washington Center
02:45PM 38.8328 -79.2481 264° West 379 436 36,000  Level Washington Center
02:46PM 38.8122 -79.3750 258° West 379 436 36,000  Level Washington Center
02:47PM 38.7892 -79.5042 257° West 373 429 36,000  Level Washington Center
02:48PM 38.7664 -79.6333 257° West 373 429 36,000  Level Washington Center
02:49PM 38.7433 -79.7572 257° West 373 429 36,000 60 Level Washington Center
02:50PM 38.7181 -79.8811 255° West 373 429 36,200 360 Climbing Washington Center
02:51PM 38.6967 -80.0075 258° West 373 429 36,800 720 Climbing Washington Center
02:52PM 38.6761 -80.1153 256° West 368 423 37,700 540 Climbing Washington Center
02:53PM 38.6458 -80.2550 255° West 360 414 38,000 120 Climbing Indianapolis Center
02:54PM 38.6222 -80.3817 257° West 365 420 38,000  Level Indianapolis Center
02:55PM 38.5983 -80.5100 257° West 369 425 38,000  Level Indianapolis Center
02:56PM 38.5739 -80.6378 256° West 369 425 38,000  Level Indianapolis Center
02:58PM 38.5494 -80.7653 256° West 370 426 38,000  Level Indianapolis Center
02:59PM 38.5247 -80.8900 256° West 363 418 38,000  Level Indianapolis Center
03:00PM 38.5008 -81.0136 256° West 358 412 38,000  Level Indianapolis Center
03:01PM 38.4717 -81.1636 256° West 360 414 38,000  Level Indianapolis Center
03:02PM 38.4467 -81.2861 255° West 356 410 38,000  Level Indianapolis Center
03:03PM 38.4225 -81.4086 256° West 353 406 38,000  Level Indianapolis Center
03:04PM 38.3989 -81.5308 256° West 352 405 38,000  Level Indianapolis Center
03:05PM 38.3744 -81.6500 255° West 346 398 38,000  Level Indianapolis Center
03:06PM 38.3503 -81.7689 256° West 344 396 38,000  Level Indianapolis Center
03:07PM 38.3178 -81.8839 250° West 344 396 38,000  Level Indianapolis Center
03:08PM 38.2853 -81.9997 250° West 344 396 38,000  Level Indianapolis Center
03:09PM 38.2464 -82.1386 250° West 347 399 38,000  Level Indianapolis Center
03:10PM 38.2139 -82.2550 250° West 347 399 38,000  Level Indianapolis Center
03:11PM 38.1811 -82.3719 250° West 350 403 38,000  Level Indianapolis Center
03:12PM 38.1439 -82.4972 249° West 348 400 38,000  Level Indianapolis Center
03:13PM 38.1106 -82.6167 251° West 356 410 38,000  Level Indianapolis Center
03:14PM 38.0761 -82.7333 249° West 354 407 38,000  Level Indianapolis Center
03:15PM 38.0422 -82.8528 250° West 360 414 38,000  Level Indianapolis Center
03:16PM 38.0078 -82.9725 250° West 362 417 38,000  Level Indianapolis Center
03:17PM 37.9667 -83.1103 249° West 361 415 38,000  Level Indianapolis Center
03:18PM 37.9322 -83.2283 250° West 358 412 38,000  Level Indianapolis Center
03:19PM 37.8975 -83.3453 249° West 357 411 38,000  Level Indianapolis Center
03:20PM 37.8628 -83.4608 249° West 353 406 38,000  Level Indianapolis Center
03:21PM 37.8286 -83.5767 250° West 352 405 38,000  Level Indianapolis Center
03:22PM 37.7889 -83.7108 249° West 350 403 38,000  Level Indianapolis Center
03:23PM 37.7539 -83.8272 249° West 353 406 38,000  Level Indianapolis Center
03:24PM 37.7181 -83.9442 249° West 356 410 38,000  Level Indianapolis Center
03:25PM 37.6831 -84.0603 249° West 354 407 38,000  Level Indianapolis Center
03:26PM 37.6478 -84.1767 249° West 357 411 38,000  Level Indianapolis Center
03:27PM 37.6056 -84.3133 249° West 358 412 38,000  Level Indianapolis Center
03:29PM 37.5692 -84.4325 249° West 363 418 38,000  Level Indianapolis Center
03:30PM 37.5319 -84.5525 249° West 368 423 38,000  Level Indianapolis Center
03:31PM 37.4942 -84.6744 249° West 373 429 38,000  Level Indianapolis Center
03:32PM 37.4572 -84.7950 249° West 371 427 38,000  Level Indianapolis Center
03:33PM 37.4133 -84.9356 249° West 369 425 38,000  Level Indianapolis Center
03:34PM 37.3750 -85.0572 248° West 374 430 38,000  Level Indianapolis Center
03:35PM 37.3367 -85.1786 248° West 375 432 38,000  Level Indianapolis Center
03:36PM 37.2986 -85.3000 249° West 373 429 38,000  Level Indianapolis Center
03:37PM 37.2600 -85.4222 248° West 376 433 38,000  Level Indianapolis Center
03:38PM 37.2147 -85.5628 248° West 382 440 38,000  Level Indianapolis Center
03:39PM 37.1828 -85.6628 248° West 378 435 38,000  Level Memphis Center
03:40PM 37.1472 -85.7742 248° West 383 441 38,000  Level Memphis Center
03:41PM 37.1081 -85.8986 248° West 383 441 38,000  Level Memphis Center
03:42PM 37.0686 -86.0231 248° West 383 441 38,000  Level Memphis Center
03:43PM 37.0272 -86.1475 247° West 383 441 38,000  Level Memphis Center
03:44PM 36.9853 -86.2717 247° West 383 441 38,000  Level Memphis Center
03:45PM 36.9439 -86.4011 248° West 389 448 38,000  Level Memphis Center
03:46PM 36.8892 -86.5206 240° Southwest 394 453 38,000  Level Memphis Center
03:47PM 36.8283 -86.6400 238° Southwest 409 471 38,000  Level Memphis Center
03:48PM 36.7653 -86.7647 238° Southwest 415 478 38,000  Level Memphis Center
03:49PM 36.7039 -86.8814 237° Southwest 407 468 38,000  Level Memphis Center
03:50PM 36.6447 -86.9975 238° Southwest 407 468 38,000  Level Memphis Center
03:51PM 36.5831 -87.1139 237° Southwest 402 463 38,000  Level Memphis Center
03:52PM 36.5236 -87.2325 238° Southwest 402 463 38,000  Level Memphis Center
03:53PM 36.4639 -87.3431 236° Southwest 402 463 38,000  Level Memphis Center
03:54PM 36.4019 -87.4589 236° Southwest 402 463 38,000  Level Memphis Center
03:55PM 36.3419 -87.5719 237° Southwest 402 463 38,000  Level Memphis Center
03:56PM 36.2819 -87.6819 236° Southwest 402 463 38,000  Level Memphis Center
03:57PM 36.2217 -87.7919 236° Southwest 402 463 38,000  Level Memphis Center
03:58PM 36.1633 -87.9044 237° Southwest 397 457 38,000  Level Memphis Center
03:59PM 36.1053 -88.0167 237° Southwest 402 463 38,000  Level Memphis Center
04:00PM 36.0447 -88.1261 236° Southwest 396 456 38,000  Level Memphis Center
04:01PM 35.9919 -88.2200 235° Southwest 391 450 38,000  Level Memphis Center
04:02PM 35.9314 -88.3292 236° Southwest 391 450 38,000  Level Memphis Center
04:03PM 35.8728 -88.4408 237° Southwest 391 450 38,000  Level Memphis Center
04:04PM 35.8097 -88.5525 235° Southwest 391 450 38,000  Level Memphis Center
04:05PM 35.7486 -88.6636 236° Southwest 396 456 38,000  Level Memphis Center
04:06PM 35.6897 -88.7747 237° Southwest 402 463 38,000  Level Memphis Center
04:07PM 35.6286 -88.8883 237° Southwest 402 463 38,000  Level Memphis Center
04:08PM 35.5653 -88.9992 235° Southwest 402 463 38,000  Level Memphis Center
04:09PM 35.5058 -89.1125 237° Southwest 402 463 38,000  Level Memphis Center
04:10PM 35.4422 -89.2256 235° Southwest 402 463 38,000  Level Memphis Center
04:11PM 35.3806 -89.3383 236° Southwest 402 463 38,000  Level Memphis Center
04:12PM 35.3169 -89.4511 235° Southwest 402 463 38,000  Level Memphis Center
04:13PM 35.2572 -89.5611 236° Southwest 402 463 38,000  Level Memphis Center
04:14PM 35.1933 -89.6761 236° Southwest 402 463 38,000  Level Memphis Center
04:15PM 35.1292 -89.7908 236° Southwest 407 468 38,000  Level Memphis Center
04:16PM 35.0586 -89.9131 235° Southwest 407 468 38,000  Level Memphis Center
04:17PM 34.9986 -90.0175 235° Southwest 413 475 38,000  Level Memphis Center
04:18PM 34.9278 -90.1292 232° Southwest 413 475 38,000  Level Memphis Center
04:19PM 34.8528 -90.2458 232° Southwest 413 475 38,000  Level Memphis Center
04:20PM 34.7819 -90.3572 232° Southwest 418 481 38,000  Level Memphis Center
04:21PM 34.7153 -90.4683 234° Southwest 418 481 38,000  Level Memphis Center
04:22PM 34.6483 -90.5792 234° Southwest 418 481 38,000  Level Memphis Center
04:23PM 34.5772 -90.6875 231° Southwest 413 475 38,000  Level Memphis Center
04:24PM 34.5122 -90.7983 235° Southwest 413 475 38,000  Level Memphis Center
04:25PM 34.4428 -90.9061 232° Southwest 413 475 38,000  Level Memphis Center
04:26PM 34.3756 -91.0139 233° Southwest 413 475 38,000  Level Memphis Center
04:27PM 34.3081 -91.1242 233° Southwest 408 470 38,000  Level Memphis Center
04:28PM 34.2386 -91.2314 232° Southwest 414 476 38,000  Level Memphis Center
04:29PM 34.1669 -91.3386 231° Southwest 414 476 38,000  Level Memphis Center
04:30PM 34.1075 -91.4358 234° Southwest 414 476 38,000  Level Memphis Center
04:31PM 34.0378 -91.5428 232° Southwest 414 476 38,000  Level Memphis Center
04:32PM 33.9678 -91.6544 233° Southwest 420 483 38,000  Level Memphis Center
04:33PM 33.8456 -91.8494 233° Southwest 415 478 38,000  Level Fort Worth Center
04:34PM 33.7731 -91.9567 231° Southwest 409 471 38,000  Level Fort Worth Center
04:35PM 33.7047 -92.0681 234° Southwest 409 471 38,000  Level Fort Worth Center
04:36PM 33.6342 -92.1747 232° Southwest 414 476 38,000  Level Fort Worth Center
04:37PM 33.5636 -92.2836 232° Southwest 414 476 38,000  Level Fort Worth Center
04:38PM 33.4928 -92.3897 231° Southwest 414 476 38,000  Level Fort Worth Center
04:39PM 33.4239 -92.4958 232° Southwest 414 476 38,000  Level Fort Worth Center
04:40PM 33.3531 -92.6042 232° Southwest 414 476 38,000  Level Fort Worth Center
04:41PM 33.2819 -92.7097 231° Southwest 414 476 38,000  Level Fort Worth Center
04:42PM 33.2056 -92.7933 222° Southwest 414 476 38,000  Level Fort Worth Center
04:43PM 33.1169 -92.8822 220° Southwest 407 468 38,000  Level Fort Worth Center
04:44PM 33.0261 -92.9636 217° Southwest 417 480 38,000  Level Fort Worth Center
04:45PM 32.9394 -93.0497 220° Southwest 417 480 38,000  Level Fort Worth Center
04:46PM 32.8506 -93.1356 219° Southwest 417 480 38,000  Level Fort Worth Center
04:47PM 32.7594 -93.2189 218° Southwest 417 480 38,000  Level Fort Worth Center
04:48PM 32.6683 -93.3047 218° Southwest 417 480 38,000  Level Fort Worth Center
04:49PM 32.5814 -93.3925 220° Southwest 417 480 38,000  Level Fort Worth Center
04:50PM 32.4881 -93.4778 218° Southwest 417 480 38,000  Level Fort Worth Center
04:51PM 32.4008 -93.5628 219° Southwest 417 480 38,000  Level Fort Worth Center
04:52PM 32.3114 -93.6453 218° Southwest 417 480 38,000  Level Fort Worth Center
04:53PM 32.2200 -93.7275 217° Southwest 417 480 38,000  Level Fort Worth Center
04:54PM 32.1369 -93.8144 222° Southwest 412 474 38,000  Level Fort Worth Center
04:55PM 32.0494 -93.8964 218° Southwest 407 468 38,000  Level Fort Worth Center
04:56PM 31.9642 -93.9778 219° Southwest 407 468 38,000  Level Fort Worth Center
04:57PM 31.8786 -94.0594 219° Southwest 407 468 38,000  Level Fort Worth Center
04:58PM 31.7908 -94.1358 216° Southwest 407 468 38,000  Level Fort Worth Center
04:59PM 31.7072 -94.2144 219° Southwest 402 463 38,000  Level Fort Worth Center
05:02PM 31.4978 -94.4089 218° Southwest 394 453 38,000  Level Houston Center
05:03PM 31.4128 -94.4875 218° Southwest 389 448 38,000  Level Houston Center
05:04PM 31.3269 -94.5661 218° Southwest 389 448 38,000  Level Houston Center
05:05PM 31.2392 -94.6467 218° Southwest 389 448 38,000  Level Houston Center
05:06PM 31.1539 -94.7253 218° Southwest 392 451 38,000  Level Houston Center
05:07PM 31.0711 -94.8147 223° Southwest 386 444 38,000  Level Houston Center
05:08PM 30.9772 -94.9161 223° Southwest 382 440 38,000  Level Houston Center
05:09PM 30.8994 -95.0000 223° Southwest 381 438 38,000  Level Houston Center
05:10PM 30.8217 -95.0844 223° Southwest 381 438 38,000 -60 Level Houston Center
05:11PM 30.7428 -95.1678 222° Southwest 382 440 37,900 -540 Descending Houston Center
05:12PM 30.6678 -95.2481 223° Southwest 368 423 36,900 -960 Descending Houston Center
05:13PM 30.5917 -95.3294 223° Southwest 370 426 35,900 -1,200 Descending Houston Center
05:14PM 30.4997 -95.4275 223° Southwest 375 432 34,500 -960 Descending Houston Center
05:15PM 30.4328 -95.4975 222° Southwest 379 436 34,000 -300 Descending Houston Center
05:16PM 30.3394 -95.5967 223° Southwest 381 438 34,000  Level Houston Center
05:17PM 30.2708 -95.6925 230° Southwest 389 448 34,000  Level Houston Center
05:18PM 30.2042 -95.7917 232° Southwest 392 451 34,000  Level Houston Center
05:19PM 30.1364 -95.8892 231° Southwest 390 449 34,000  Level Houston Center
05:20PM 30.0975 -96.0006 248° West 399 459 34,000 -300 Level Houston Center
05:21PM 30.0883 -96.1247 265° West 385 443 33,400 -900 Descending Houston Center
05:23PM 30.0714 -96.2711 262° West 386 444 32,200 -1,020 Descending Houston Center
05:24PM 30.0592 -96.3928 263° West 385 443 31,300 -900 Descending Houston Center
05:25PM 30.0464 -96.5197 263° West 398 458 30,400 -960 Descending Houston Center
05:26PM 30.0325 -96.6461 263° West 400 460 29,400 -1,020 Descending Houston Center
05:27PM 30.0197 -96.7708 263° West 396 456 28,400 -1,080 Descending Houston Center
05:28PM 30.0033 -96.9181 263° West 390 449 27,200 -1,080 Descending Houston Center
05:29PM 29.9906 -97.0397 263° West 386 444 26,200 -960 Descending Houston Center
05:30PM 29.9767 -97.1594 262° West 383 441 25,300 -960 Descending Houston Center
05:31PM 29.9628 -97.2767 262° West 376 433 24,300 -1,380 Descending Houston Center
05:32PM 29.9506 -97.3953 263° West 374 430 22,500 -2,160 Descending Houston Center
05:33PM 29.9356 -97.5311 263° West 359 413 19,800 -2,580 Descending Houston Center
05:33PM 29.9297 -97.5756 261° West 351 404 18,900 -2,280 Descending Houston Center
05:34PM 29.9217 -97.6442 262° West 344 396 17,600 -2,340 Descending Houston Center
05:35PM 29.9086 -97.7617 263° West 349 402 15,000 -2,280 Descending Houston Center
05:36PM 29.8911 -97.8697 259° West 379 436 13,100 -1,440 Descending Houston Center
05:37PM 29.8506 -97.9714 245° Southwest 343 395 12,200 -1,380 Descending Houston Center
05:38PM 29.8058 -98.0781 244° Southwest 313 360 10,200 -1,560 Descending Houston Center
05:39PM 29.7681 -98.1672 244° Southwest 310 357 8,900 -1,380 Descending Houston Center
05:40PM 29.7339 -98.2508 245° Southwest 293 337 7,500 -1,320 Descending Houston Center
05:41PM 29.6992 -98.3381 245° Southwest 282 325 6,200 -960 Descending Houston Center
05:42PM 29.6744 -98.4000 245° Southwest 256 295 5,700 -1,080 Descending Houston Center
05:43PM 29.6358 -98.4622 234° Southwest 231 266 4,300 -1,140 Descending Houston Center
05:43PM 29.6267 -98.4739 228° Southwest 226 260 4,300 -420 Level Houston Center
05:44PM 29.6086 -98.5089 239° Southwest 144 166 3,900 -900 Descending Houston Center
05:44PM 29.6061 -98.5181 253° West 159 183 3,400 -1,500 Descending Houston Center
05:45PM 29.5733 -98.5242 189° South 137 158 1,900 -1,260 Descending Houston Center
05:46PM 29.5556 -98.5008 131° Southeast 129 148 1,300 -900 Descending Houston Center
05:46PM 29.5483 -98.4903 128° Southeast 130 150 1,000 -900 Descending Houston Center
05:48PM 29.5340 -98.4691 221° Southwest  Level Estimated
05:55PM 29.5333 -98.4667 16° North  Level FlightAware Approximate
05:56PM 29.5340 -98.4691 16° North  Level Estimated